sensor_id;sensor_type;location;lat;lon;timestamp;P1;durP1;ratioP1;P2;durP2;ratioP2
22916;SDS011;11624;53.250;7.456;2023-02-23T00:01:25;83.30;;;29.23;;
22916;SDS011;11624;53.250;7.456;2023-02-23T00:03:54;84.05;;;29.85;;
22916;SDS011;11624;53.250;7.456;2023-02-23T00:06:26;76.72;;;28.20;;
22916;SDS011;11624;53.250;7.456;2023-02-23T00:08:55;86.10;;;30.98;;
22916;SDS011;11624;53.250;7.456;2023-02-23T00:11:26;85.13;;;30.25;;
22916;SDS011;11624;53.250;7.456;2023-02-23T00:13:55;83.40;;;29.40;;
22916;SDS011;11624;53.250;7.456;2023-02-23T00:16:24;82.95;;;30.02;;
22916;SDS011;11624;53.250;7.456;2023-02-23T00:18:53;74.45;;;28.60;;
22916;SDS011;11624;53.250;7.456;2023-02-23T00:21:26;89.65;;;30.80;;
22916;SDS011;11624;53.250;7.456;2023-02-23T00:23:56;83.53;;;30.10;;
22916;SDS011;11624;53.250;7.456;2023-02-23T00:26:26;84.70;;;30.48;;
22916;SDS011;11624;53.250;7.456;2023-02-23T00:28:57;89.07;;;30.83;;
22916;SDS011;11624;53.250;7.456;2023-02-23T00:31:28;87.38;;;31.27;;
22916;SDS011;11624;53.250;7.456;2023-02-23T00:33:57;85.22;;;30.13;;
22916;SDS011;11624;53.250;7.456;2023-02-23T00:36:28;87.15;;;30.60;;
22916;SDS011;11624;53.250;7.456;2023-02-23T00:38:59;77.40;;;29.55;;
22916;SDS011;11624;53.250;7.456;2023-02-23T00:41:32;86.10;;;30.42;;
22916;SDS011;11624;53.250;7.456;2023-02-23T00:44:00;81.57;;;31.25;;
22916;SDS011;11624;53.250;7.456;2023-02-23T00:46:30;82.38;;;30.38;;
22916;SDS011;11624;53.250;7.456;2023-02-23T00:48:58;93.60;;;30.77;;
22916;SDS011;11624;53.250;7.456;2023-02-23T00:51:27;92.10;;;30.35;;
22916;SDS011;11624;53.250;7.456;2023-02-23T00:53:57;92.57;;;29.63;;
22916;SDS011;11624;53.250;7.456;2023-02-23T00:56:26;81.50;;;29.98;;
22916;SDS011;11624;53.250;7.456;2023-02-23T00:58:55;85.10;;;30.45;;
22916;SDS011;11624;53.250;7.456;2023-02-23T01:01:25;79.45;;;30.77;;
22916;SDS011;11624;53.250;7.456;2023-02-23T01:03:54;85.63;;;31.58;;
22916;SDS011;11624;53.250;7.456;2023-02-23T01:06:22;89.35;;;30.95;;
22916;SDS011;11624;53.250;7.456;2023-02-23T01:08:51;86.20;;;32.35;;
22916;SDS011;11624;53.250;7.456;2023-02-23T01:11:23;84.30;;;30.80;;
22916;SDS011;11624;53.250;7.456;2023-02-23T01:13:54;80.25;;;31.67;;
22916;SDS011;11624;53.250;7.456;2023-02-23T01:16:24;81.90;;;31.77;;
22916;SDS011;11624;53.250;7.456;2023-02-23T01:18:56;91.20;;;35.00;;
22916;SDS011;11624;53.250;7.456;2023-02-23T01:21:26;87.97;;;34.08;;
22916;SDS011;11624;53.250;7.456;2023-02-23T01:23:56;85.90;;;35.95;;
22916;SDS011;11624;53.250;7.456;2023-02-23T01:26:26;90.28;;;35.88;;
22916;SDS011;11624;53.250;7.456;2023-02-23T01:28:56;90.45;;;34.90;;
22916;SDS011;11624;53.250;7.456;2023-02-23T01:31:26;86.90;;;36.70;;
22916;SDS011;11624;53.250;7.456;2023-02-23T01:33:59;88.72;;;35.90;;
22916;SDS011;11624;53.250;7.456;2023-02-23T01:36:31;84.72;;;34.67;;
22916;SDS011;11624;53.250;7.456;2023-02-23T01:39:01;88.93;;;34.78;;
22916;SDS011;11624;53.250;7.456;2023-02-23T01:41:33;88.38;;;35.00;;
22916;SDS011;11624;53.250;7.456;2023-02-23T01:44:03;81.97;;;35.15;;
22916;SDS011;11624;53.250;7.456;2023-02-23T01:46:34;89.45;;;35.00;;
22916;SDS011;11624;53.250;7.456;2023-02-23T01:49:06;81.20;;;34.95;;
22916;SDS011;11624;53.250;7.456;2023-02-23T01:51:37;87.95;;;34.28;;
22916;SDS011;11624;53.250;7.456;2023-02-23T01:54:09;85.90;;;34.20;;
22916;SDS011;11624;53.250;7.456;2023-02-23T01:56:43;86.15;;;34.50;;
22916;SDS011;11624;53.250;7.456;2023-02-23T01:59:15;87.32;;;36.35;;
22916;SDS011;11624;53.250;7.456;2023-02-23T02:01:44;90.32;;;35.05;;
22916;SDS011;11624;53.250;7.456;2023-02-23T02:04:15;85.50;;;33.63;;
22916;SDS011;11624;53.250;7.456;2023-02-23T02:06:45;87.43;;;33.72;;
22916;SDS011;11624;53.250;7.456;2023-02-23T02:09:19;92.82;;;35.35;;
22916;SDS011;11624;53.250;7.456;2023-02-23T02:11:51;84.57;;;34.63;;
22916;SDS011;11624;53.250;7.456;2023-02-23T02:14:22;89.88;;;36.08;;
22916;SDS011;11624;53.250;7.456;2023-02-23T02:23:10;89.65;;;35.33;;
22916;SDS011;11624;53.250;7.456;2023-02-23T02:26:09;88.93;;;36.47;;
22916;SDS011;11624;53.250;7.456;2023-02-23T02:28:54;100.43;;;35.97;;
22916;SDS011;11624;53.250;7.456;2023-02-23T02:34:48;94.43;;;36.15;;
22916;SDS011;11624;53.250;7.456;2023-02-23T02:37:47;89.65;;;34.70;;
22916;SDS011;11624;53.250;7.456;2023-02-23T02:40:27;97.85;;;37.13;;
22916;SDS011;11624;53.250;7.456;2023-02-23T02:43:04;86.03;;;34.28;;
22916;SDS011;11624;53.250;7.456;2023-02-23T02:45:41;92.50;;;35.97;;
22916;SDS011;11624;53.250;7.456;2023-02-23T02:48:18;91.90;;;34.15;;
22916;SDS011;11624;53.250;7.456;2023-02-23T02:50:57;91.30;;;34.65;;
22916;SDS011;11624;53.250;7.456;2023-02-23T02:53:38;87.68;;;33.92;;
22916;SDS011;11624;53.250;7.456;2023-02-23T02:56:12;83.15;;;32.33;;
22916;SDS011;11624;53.250;7.456;2023-02-23T02:58:45;87.80;;;34.95;;
22916;SDS011;11624;53.250;7.456;2023-02-23T03:01:16;86.38;;;33.80;;
22916;SDS011;11624;53.250;7.456;2023-02-23T03:04:17;87.22;;;33.80;;
22916;SDS011;11624;53.250;7.456;2023-02-23T03:07:06;87.25;;;34.58;;
22916;SDS011;11624;53.250;7.456;2023-02-23T03:10:02;86.55;;;34.33;;
22916;SDS011;11624;53.250;7.456;2023-02-23T03:12:54;86.40;;;33.45;;
22916;SDS011;11624;53.250;7.456;2023-02-23T03:15:47;89.15;;;33.67;;
22916;SDS011;11624;53.250;7.456;2023-02-23T03:18:46;92.32;;;34.60;;
22916;SDS011;11624;53.250;7.456;2023-02-23T03:21:42;89.10;;;33.28;;
22916;SDS011;11624;53.250;7.456;2023-02-23T03:24:34;84.47;;;32.10;;
22916;SDS011;11624;53.250;7.456;2023-02-23T03:27:28;92.22;;;33.03;;
22916;SDS011;11624;53.250;7.456;2023-02-23T03:30:26;91.43;;;34.92;;
22916;SDS011;11624;53.250;7.456;2023-02-23T03:33:16;97.30;;;33.97;;
22916;SDS011;11624;53.250;7.456;2023-02-23T03:36:09;94.50;;;33.55;;
22916;SDS011;11624;53.250;7.456;2023-02-23T03:39:03;86.90;;;34.17;;
22916;SDS011;11624;53.250;7.456;2023-02-23T03:41:55;90.97;;;34.67;;
22916;SDS011;11624;53.250;7.456;2023-02-23T03:44:44;95.97;;;36.53;;
22916;SDS011;11624;53.250;7.456;2023-02-23T03:47:33;104.28;;;37.53;;
22916;SDS011;11624;53.250;7.456;2023-02-23T03:50:23;99.68;;;37.90;;
22916;SDS011;11624;53.250;7.456;2023-02-23T03:53:15;110.82;;;39.80;;
22916;SDS011;11624;53.250;7.456;2023-02-23T03:56:05;110.43;;;40.25;;
22916;SDS011;11624;53.250;7.456;2023-02-23T03:58:54;118.07;;;41.10;;
22916;SDS011;11624;53.250;7.456;2023-02-23T04:01:44;110.53;;;38.92;;
22916;SDS011;11624;53.250;7.456;2023-02-23T04:04:32;112.43;;;39.33;;
22916;SDS011;11624;53.250;7.456;2023-02-23T04:07:19;119.13;;;40.88;;
22916;SDS011;11624;53.250;7.456;2023-02-23T04:10:05;109.35;;;38.20;;
22916;SDS011;11624;53.250;7.456;2023-02-23T04:12:54;108.63;;;39.33;;
22916;SDS011;11624;53.250;7.456;2023-02-23T04:15:43;102.85;;;38.88;;
22916;SDS011;11624;53.250;7.456;2023-02-23T04:18:16;104.28;;;38.63;;
22916;SDS011;11624;53.250;7.456;2023-02-23T04:20:48;102.78;;;37.40;;
22916;SDS011;11624;53.250;7.456;2023-02-23T04:23:16;107.40;;;38.90;;
22916;SDS011;11624;53.250;7.456;2023-02-23T04:25:44;96.57;;;37.28;;
22916;SDS011;11624;53.250;7.456;2023-02-23T04:28:13;98.63;;;37.60;;
22916;SDS011;11624;53.250;7.456;2023-02-23T04:30:42;99.25;;;38.03;;
22916;SDS011;11624;53.250;7.456;2023-02-23T04:33:11;103.53;;;36.42;;
22916;SDS011;11624;53.250;7.456;2023-02-23T04:35:40;105.82;;;36.17;;
22916;SDS011;11624;53.250;7.456;2023-02-23T04:38:08;109.32;;;37.80;;
22916;SDS011;11624;53.250;7.456;2023-02-23T04:40:36;104.13;;;36.28;;
22916;SDS011;11624;53.250;7.456;2023-02-23T04:43:04;105.93;;;36.85;;
22916;SDS011;11624;53.250;7.456;2023-02-23T04:45:32;107.85;;;37.13;;
22916;SDS011;11624;53.250;7.456;2023-02-23T04:48:00;114.53;;;37.60;;
22916;SDS011;11624;53.250;7.456;2023-02-23T04:50:28;106.25;;;38.95;;
22916;SDS011;11624;53.250;7.456;2023-02-23T04:52:59;112.90;;;38.28;;
22916;SDS011;11624;53.250;7.456;2023-02-23T04:55:27;111.78;;;38.17;;
22916;SDS011;11624;53.250;7.456;2023-02-23T04:57:56;113.65;;;37.20;;
22916;SDS011;11624;53.250;7.456;2023-02-23T05:00:25;108.43;;;35.90;;
22916;SDS011;11624;53.250;7.456;2023-02-23T05:02:54;109.40;;;37.80;;
22916;SDS011;11624;53.250;7.456;2023-02-23T05:05:23;109.22;;;38.05;;
22916;SDS011;11624;53.250;7.456;2023-02-23T05:07:51;109.75;;;38.10;;
22916;SDS011;11624;53.250;7.456;2023-02-23T05:10:22;114.00;;;38.40;;
22916;SDS011;11624;53.250;7.456;2023-02-23T05:12:50;114.05;;;37.88;;
22916;SDS011;11624;53.250;7.456;2023-02-23T05:15:18;107.75;;;38.00;;
22916;SDS011;11624;53.250;7.456;2023-02-23T05:17:46;111.93;;;37.85;;
22916;SDS011;11624;53.250;7.456;2023-02-23T05:20:14;105.10;;;37.55;;
22916;SDS011;11624;53.250;7.456;2023-02-23T05:22:42;104.38;;;37.80;;
22916;SDS011;11624;53.250;7.456;2023-02-23T05:25:10;104.45;;;37.10;;
22916;SDS011;11624;53.250;7.456;2023-02-23T05:27:40;114.60;;;39.35;;
22916;SDS011;11624;53.250;7.456;2023-02-23T05:30:08;106.95;;;37.30;;
22916;SDS011;11624;53.250;7.456;2023-02-23T05:32:37;113.25;;;37.83;;
22916;SDS011;11624;53.250;7.456;2023-02-23T05:35:05;101.63;;;37.50;;
22916;SDS011;11624;53.250;7.456;2023-02-23T05:37:34;104.80;;;38.00;;
22916;SDS011;11624;53.250;7.456;2023-02-23T05:40:02;105.13;;;37.53;;
22916;SDS011;11624;53.250;7.456;2023-02-23T05:42:31;112.60;;;37.97;;
22916;SDS011;11624;53.250;7.456;2023-02-23T05:45:00;113.10;;;38.15;;
22916;SDS011;11624;53.250;7.456;2023-02-23T05:47:30;108.50;;;37.47;;
22916;SDS011;11624;53.250;7.456;2023-02-23T05:50:00;102.22;;;36.30;;
22916;SDS011;11624;53.250;7.456;2023-02-23T05:52:28;93.82;;;37.13;;
22916;SDS011;11624;53.250;7.456;2023-02-23T05:54:56;98.72;;;36.45;;
22916;SDS011;11624;53.250;7.456;2023-02-23T05:57:25;103.65;;;37.45;;
22916;SDS011;11624;53.250;7.456;2023-02-23T05:59:54;116.88;;;38.33;;
22916;SDS011;11624;53.250;7.456;2023-02-23T06:02:23;127.70;;;40.65;;
22916;SDS011;11624;53.250;7.456;2023-02-23T06:04:51;115.90;;;38.72;;
22916;SDS011;11624;53.250;7.456;2023-02-23T06:07:21;112.60;;;39.08;;
22916;SDS011;11624;53.250;7.456;2023-02-23T06:09:49;119.63;;;39.38;;
22916;SDS011;11624;53.250;7.456;2023-02-23T06:12:17;118.45;;;39.40;;
22916;SDS011;11624;53.250;7.456;2023-02-23T06:14:45;105.03;;;38.65;;
22916;SDS011;11624;53.250;7.456;2023-02-23T06:17:13;118.88;;;39.55;;
22916;SDS011;11624;53.250;7.456;2023-02-23T06:19:42;122.75;;;40.25;;
22916;SDS011;11624;53.250;7.456;2023-02-23T06:22:11;128.80;;;39.53;;
22916;SDS011;11624;53.250;7.456;2023-02-23T06:24:39;130.18;;;39.00;;
22916;SDS011;11624;53.250;7.456;2023-02-23T06:27:07;128.70;;;38.55;;
22916;SDS011;11624;53.250;7.456;2023-02-23T06:29:35;133.75;;;39.45;;
22916;SDS011;11624;53.250;7.456;2023-02-23T06:32:04;135.98;;;38.50;;
22916;SDS011;11624;53.250;7.456;2023-02-23T06:34:32;135.93;;;36.80;;
22916;SDS011;11624;53.250;7.456;2023-02-23T06:37:02;141.25;;;37.70;;
22916;SDS011;11624;53.250;7.456;2023-02-23T06:39:34;132.65;;;36.90;;
22916;SDS011;11624;53.250;7.456;2023-02-23T06:42:02;132.98;;;36.53;;
22916;SDS011;11624;53.250;7.456;2023-02-23T06:44:30;130.32;;;36.17;;
22916;SDS011;11624;53.250;7.456;2023-02-23T06:47:02;132.57;;;36.95;;
22916;SDS011;11624;53.250;7.456;2023-02-23T06:49:31;117.25;;;35.90;;
22916;SDS011;11624;53.250;7.456;2023-02-23T06:51:59;127.38;;;36.28;;
22916;SDS011;11624;53.250;7.456;2023-02-23T06:54:28;126.10;;;37.00;;
22916;SDS011;11624;53.250;7.456;2023-02-23T06:56:56;126.47;;;36.15;;
22916;SDS011;11624;53.250;7.456;2023-02-23T06:59:24;128.63;;;37.22;;
22916;SDS011;11624;53.250;7.456;2023-02-23T07:01:53;130.10;;;35.80;;
22916;SDS011;11624;53.250;7.456;2023-02-23T07:04:21;137.82;;;38.40;;
22916;SDS011;11624;53.250;7.456;2023-02-23T07:06:49;133.38;;;36.10;;
22916;SDS011;11624;53.250;7.456;2023-02-23T07:09:17;142.90;;;35.85;;
22916;SDS011;11624;53.250;7.456;2023-02-23T07:11:46;129.65;;;38.08;;
22916;SDS011;11624;53.250;7.456;2023-02-23T07:14:14;132.32;;;38.15;;
22916;SDS011;11624;53.250;7.456;2023-02-23T07:16:52;133.15;;;38.20;;
22916;SDS011;11624;53.250;7.456;2023-02-23T07:19:20;125.70;;;36.50;;
22916;SDS011;11624;53.250;7.456;2023-02-23T07:21:48;140.18;;;37.83;;
22916;SDS011;11624;53.250;7.456;2023-02-23T07:24:16;127.78;;;36.65;;
22916;SDS011;11624;53.250;7.456;2023-02-23T07:26:44;136.63;;;36.65;;
22916;SDS011;11624;53.250;7.456;2023-02-23T07:29:15;131.82;;;35.65;;
22916;SDS011;11624;53.250;7.456;2023-02-23T07:31:43;116.47;;;36.17;;
22916;SDS011;11624;53.250;7.456;2023-02-23T07:34:11;127.13;;;35.85;;
22916;SDS011;11624;53.250;7.456;2023-02-23T07:36:39;121.47;;;35.10;;
22916;SDS011;11624;53.250;7.456;2023-02-23T07:39:07;118.85;;;34.15;;
22916;SDS011;11624;53.250;7.456;2023-02-23T07:41:35;113.18;;;33.92;;
22916;SDS011;11624;53.250;7.456;2023-02-23T07:44:15;112.97;;;35.58;;
22916;SDS011;11624;53.250;7.456;2023-02-23T07:46:43;112.53;;;36.15;;
22916;SDS011;11624;53.250;7.456;2023-02-23T07:49:11;107.57;;;34.22;;
22916;SDS011;11624;53.250;7.456;2023-02-23T07:51:40;106.78;;;33.80;;
22916;SDS011;11624;53.250;7.456;2023-02-23T07:54:08;113.03;;;34.35;;
22916;SDS011;11624;53.250;7.456;2023-02-23T07:56:36;106.70;;;34.40;;
22916;SDS011;11624;53.250;7.456;2023-02-23T07:59:04;98.38;;;33.35;;
22916;SDS011;11624;53.250;7.456;2023-02-23T08:01:34;107.95;;;34.33;;
22916;SDS011;11624;53.250;7.456;2023-02-23T08:04:02;107.07;;;33.47;;
22916;SDS011;11624;53.250;7.456;2023-02-23T08:06:31;110.22;;;34.42;;
22916;SDS011;11624;53.250;7.456;2023-02-23T08:08:59;106.60;;;34.25;;
22916;SDS011;11624;53.250;7.456;2023-02-23T08:11:27;105.70;;;33.55;;
22916;SDS011;11624;53.250;7.456;2023-02-23T08:13:55;102.88;;;33.80;;
22916;SDS011;11624;53.250;7.456;2023-02-23T08:16:25;109.13;;;35.13;;
22916;SDS011;11624;53.250;7.456;2023-02-23T08:18:56;97.43;;;32.55;;
22916;SDS011;11624;53.250;7.456;2023-02-23T08:21:25;101.28;;;34.10;;
22916;SDS011;11624;53.250;7.456;2023-02-23T08:23:54;102.05;;;32.63;;
22916;SDS011;11624;53.250;7.456;2023-02-23T08:26:22;107.47;;;32.63;;
22916;SDS011;11624;53.250;7.456;2023-02-23T08:28:51;94.35;;;32.28;;
22916;SDS011;11624;53.250;7.456;2023-02-23T08:31:19;88.80;;;30.50;;
22916;SDS011;11624;53.250;7.456;2023-02-23T08:33:50;98.90;;;32.42;;
22916;SDS011;11624;53.250;7.456;2023-02-23T08:36:19;90.93;;;30.63;;
22916;SDS011;11624;53.250;7.456;2023-02-23T08:38:48;83.20;;;31.73;;
22916;SDS011;11624;53.250;7.456;2023-02-23T08:41:16;93.57;;;29.83;;
22916;SDS011;11624;53.250;7.456;2023-02-23T08:43:45;83.57;;;30.42;;
22916;SDS011;11624;53.250;7.456;2023-02-23T08:46:14;83.60;;;30.30;;
22916;SDS011;11624;53.250;7.456;2023-02-23T08:48:44;82.95;;;29.25;;
22916;SDS011;11624;53.250;7.456;2023-02-23T08:51:12;87.32;;;29.25;;
22916;SDS011;11624;53.250;7.456;2023-02-23T08:53:43;80.35;;;30.17;;
22916;SDS011;11624;53.250;7.456;2023-02-23T08:56:11;87.65;;;30.13;;
22916;SDS011;11624;53.250;7.456;2023-02-23T08:58:41;80.53;;;29.02;;
22916;SDS011;11624;53.250;7.456;2023-02-23T09:01:14;84.18;;;28.55;;
22916;SDS011;11624;53.250;7.456;2023-02-23T09:03:44;81.97;;;28.88;;
22916;SDS011;11624;53.250;7.456;2023-02-23T09:06:13;82.28;;;28.55;;
22916;SDS011;11624;53.250;7.456;2023-02-23T09:08:44;73.80;;;28.38;;
22916;SDS011;11624;53.250;7.456;2023-02-23T09:11:12;83.32;;;30.10;;
22916;SDS011;11624;53.250;7.456;2023-02-23T09:13:40;74.65;;;29.02;;
22916;SDS011;11624;53.250;7.456;2023-02-23T09:16:08;75.72;;;29.65;;
22916;SDS011;11624;53.250;7.456;2023-02-23T09:18:37;79.88;;;28.70;;
22916;SDS011;11624;53.250;7.456;2023-02-23T09:21:06;78.35;;;28.25;;
22916;SDS011;11624;53.250;7.456;2023-02-23T09:23:36;72.93;;;27.63;;
22916;SDS011;11624;53.250;7.456;2023-02-23T09:26:06;68.55;;;27.42;;
22916;SDS011;11624;53.250;7.456;2023-02-23T09:28:35;72.80;;;26.67;;
22916;SDS011;11624;53.250;7.456;2023-02-23T09:31:06;67.18;;;26.25;;
22916;SDS011;11624;53.250;7.456;2023-02-23T09:33:35;73.03;;;26.02;;
22916;SDS011;11624;53.250;7.456;2023-02-23T09:36:04;80.78;;;27.98;;
22916;SDS011;11624;53.250;7.456;2023-02-23T09:38:33;79.05;;;27.05;;
22916;SDS011;11624;53.250;7.456;2023-02-23T09:41:01;83.47;;;28.58;;
22916;SDS011;11624;53.250;7.456;2023-02-23T09:43:31;87.53;;;28.50;;
22916;SDS011;11624;53.250;7.456;2023-02-23T09:46:07;89.65;;;30.05;;
22916;SDS011;11624;53.250;7.456;2023-02-23T09:48:41;88.93;;;29.52;;
22916;SDS011;11624;53.250;7.456;2023-02-23T09:51:10;84.55;;;28.63;;
22916;SDS011;11624;53.250;7.456;2023-02-23T09:53:44;93.45;;;29.38;;
22916;SDS011;11624;53.250;7.456;2023-02-23T09:56:18;89.22;;;29.08;;
22916;SDS011;11624;53.250;7.456;2023-02-23T09:58:53;86.38;;;29.00;;
22916;SDS011;11624;53.250;7.456;2023-02-23T10:01:47;90.25;;;27.92;;
22916;SDS011;11624;53.250;7.456;2023-02-23T10:04:22;85.78;;;28.40;;
22916;SDS011;11624;53.250;7.456;2023-02-23T10:06:56;86.40;;;27.70;;
22916;SDS011;11624;53.250;7.456;2023-02-23T10:09:34;87.80;;;29.38;;
22916;SDS011;11624;53.250;7.456;2023-02-23T10:12:12;90.15;;;29.50;;
22916;SDS011;11624;53.250;7.456;2023-02-23T10:14:55;88.93;;;29.48;;
22916;SDS011;11624;53.250;7.456;2023-02-23T10:17:32;85.57;;;28.45;;
22916;SDS011;11624;53.250;7.456;2023-02-23T10:20:10;88.45;;;29.08;;
22916;SDS011;11624;53.250;7.456;2023-02-23T10:22:45;87.63;;;28.85;;
22916;SDS011;11624;53.250;7.456;2023-02-23T10:25:16;83.20;;;29.48;;
22916;SDS011;11624;53.250;7.456;2023-02-23T10:27:49;87.97;;;28.23;;
22916;SDS011;11624;53.250;7.456;2023-02-23T10:30:20;88.68;;;29.80;;
22916;SDS011;11624;53.250;7.456;2023-02-23T10:32:51;93.93;;;29.38;;
22916;SDS011;11624;53.250;7.456;2023-02-23T10:35:26;84.40;;;29.05;;
22916;SDS011;11624;53.250;7.456;2023-02-23T10:37:56;83.72;;;29.50;;
22916;SDS011;11624;53.250;7.456;2023-02-23T10:40:27;82.50;;;29.45;;
22916;SDS011;11624;53.250;7.456;2023-02-23T10:42:58;89.53;;;29.67;;
22916;SDS011;11624;53.250;7.456;2023-02-23T10:45:29;89.93;;;29.90;;
22916;SDS011;11624;53.250;7.456;2023-02-23T10:48:03;83.05;;;30.38;;
22916;SDS011;11624;53.250;7.456;2023-02-23T10:50:35;83.40;;;29.35;;
22916;SDS011;11624;53.250;7.456;2023-02-23T10:53:10;81.93;;;29.52;;
22916;SDS011;11624;53.250;7.456;2023-02-23T10:55:42;83.80;;;29.58;;
22916;SDS011;11624;53.250;7.456;2023-02-23T10:58:13;78.28;;;29.23;;
22916;SDS011;11624;53.250;7.456;2023-02-23T11:00:51;78.80;;;27.52;;
22916;SDS011;11624;53.250;7.456;2023-02-23T11:03:22;76.82;;;26.80;;
22916;SDS011;11624;53.250;7.456;2023-02-23T11:05:54;69.97;;;23.77;;
22916;SDS011;11624;53.250;7.456;2023-02-23T11:08:24;61.83;;;24.45;;
22916;SDS011;11624;53.250;7.456;2023-02-23T11:11:02;65.78;;;23.63;;
22916;SDS011;11624;53.250;7.456;2023-02-23T11:13:34;59.25;;;21.92;;
22916;SDS011;11624;53.250;7.456;2023-02-23T11:16:09;56.08;;;20.67;;
22916;SDS011;11624;53.250;7.456;2023-02-23T11:18:39;57.05;;;21.00;;
22916;SDS011;11624;53.250;7.456;2023-02-23T11:21:12;54.97;;;20.58;;
22916;SDS011;11624;53.250;7.456;2023-02-23T11:23:48;54.40;;;20.50;;
22916;SDS011;11624;53.250;7.456;2023-02-23T11:26:23;57.30;;;20.17;;
22916;SDS011;11624;53.250;7.456;2023-02-23T11:28:56;52.00;;;19.77;;
22916;SDS011;11624;53.250;7.456;2023-02-23T11:31:31;57.75;;;20.63;;
22916;SDS011;11624;53.250;7.456;2023-02-23T11:34:02;54.25;;;20.58;;
22916;SDS011;11624;53.250;7.456;2023-02-23T11:36:32;52.20;;;19.80;;
22916;SDS011;11624;53.250;7.456;2023-02-23T11:39:04;53.30;;;20.38;;
22916;SDS011;11624;53.250;7.456;2023-02-23T11:41:41;50.45;;;19.38;;
22916;SDS011;11624;53.250;7.456;2023-02-23T11:44:17;53.03;;;18.77;;
22916;SDS011;11624;53.250;7.456;2023-02-23T11:46:48;56.60;;;19.52;;
22916;SDS011;11624;53.250;7.456;2023-02-23T11:49:18;49.08;;;19.05;;
22916;SDS011;11624;53.250;7.456;2023-02-23T11:51:50;48.92;;;18.95;;
22916;SDS011;11624;53.250;7.456;2023-02-23T11:54:20;52.75;;;19.85;;
22916;SDS011;11624;53.250;7.456;2023-02-23T11:56:52;55.03;;;19.92;;
22916;SDS011;11624;53.250;7.456;2023-02-23T11:59:25;53.20;;;19.70;;
22916;SDS011;11624;53.250;7.456;2023-02-23T12:02:00;55.15;;;20.85;;
22916;SDS011;11624;53.250;7.456;2023-02-23T12:04:34;59.85;;;20.23;;
22916;SDS011;11624;53.250;7.456;2023-02-23T12:10:12;57.58;;;19.95;;
22916;SDS011;11624;53.250;7.456;2023-02-23T12:12:57;57.55;;;20.80;;
22916;SDS011;11624;53.250;7.456;2023-02-23T12:15:33;56.78;;;20.83;;
22916;SDS011;11624;53.250;7.456;2023-02-23T12:18:13;60.03;;;21.48;;
22916;SDS011;11624;53.250;7.456;2023-02-23T12:20:48;62.80;;;22.38;;
22916;SDS011;11624;53.250;7.456;2023-02-23T12:23:20;62.50;;;21.80;;
22916;SDS011;11624;53.250;7.456;2023-02-23T12:25:54;64.45;;;22.42;;
22916;SDS011;11624;53.250;7.456;2023-02-23T12:28:26;61.30;;;21.40;;
22916;SDS011;11624;53.250;7.456;2023-02-23T12:31:01;62.55;;;19.95;;
22916;SDS011;11624;53.250;7.456;2023-02-23T12:33:35;63.97;;;21.80;;
22916;SDS011;11624;53.250;7.456;2023-02-23T12:36:10;58.50;;;19.52;;
22916;SDS011;11624;53.250;7.456;2023-02-23T12:38:46;59.67;;;20.92;;
22916;SDS011;11624;53.250;7.456;2023-02-23T12:41:19;60.35;;;19.35;;
22916;SDS011;11624;53.250;7.456;2023-02-23T12:43:54;62.67;;;20.73;;
22916;SDS011;11624;53.250;7.456;2023-02-23T12:46:26;56.05;;;19.90;;
22916;SDS011;11624;53.250;7.456;2023-02-23T12:49:02;60.60;;;20.27;;
22916;SDS011;11624;53.250;7.456;2023-02-23T12:51:34;55.60;;;19.85;;
22916;SDS011;11624;53.250;7.456;2023-02-23T12:54:07;55.13;;;21.48;;
22916;SDS011;11624;53.250;7.456;2023-02-23T12:56:39;52.78;;;19.02;;
22916;SDS011;11624;53.250;7.456;2023-02-23T12:59:18;54.42;;;18.52;;
22916;SDS011;11624;53.250;7.456;2023-02-23T13:01:58;45.78;;;16.05;;
22916;SDS011;11624;53.250;7.456;2023-02-23T13:04:53;47.00;;;17.75;;
22916;SDS011;11624;53.250;7.456;2023-02-23T13:07:34;51.72;;;18.20;;
22916;SDS011;11624;53.250;7.456;2023-02-23T13:10:12;44.78;;;16.98;;
22916;SDS011;11624;53.250;7.456;2023-02-23T13:12:51;48.15;;;17.13;;
22916;SDS011;11624;53.250;7.456;2023-02-23T13:15:34;45.30;;;17.58;;
22916;SDS011;11624;53.250;7.456;2023-02-23T13:18:13;48.35;;;18.92;;
22916;SDS011;11624;53.250;7.456;2023-02-23T13:20:49;51.33;;;18.52;;
22916;SDS011;11624;53.250;7.456;2023-02-23T13:23:24;49.30;;;17.33;;
22916;SDS011;11624;53.250;7.456;2023-02-23T13:26:00;52.92;;;18.73;;
22916;SDS011;11624;53.250;7.456;2023-02-23T13:28:41;58.08;;;19.70;;
22916;SDS011;11624;53.250;7.456;2023-02-23T13:31:18;57.40;;;18.85;;
22916;SDS011;11624;53.250;7.456;2023-02-23T13:33:50;60.22;;;20.05;;
22916;SDS011;11624;53.250;7.456;2023-02-23T13:36:22;56.75;;;19.50;;
22916;SDS011;11624;53.250;7.456;2023-02-23T13:41:49;65.68;;;20.77;;
22916;SDS011;11624;53.250;7.456;2023-02-23T13:44:28;72.68;;;22.60;;
22916;SDS011;11624;53.250;7.456;2023-02-23T13:47:02;80.18;;;22.60;;
22916;SDS011;11624;53.250;7.456;2023-02-23T13:49:42;84.25;;;23.95;;
22916;SDS011;11624;53.250;7.456;2023-02-23T13:52:25;71.88;;;20.98;;
22916;SDS011;11624;53.250;7.456;2023-02-23T13:54:58;66.88;;;20.77;;
22916;SDS011;11624;53.250;7.456;2023-02-23T13:57:29;70.90;;;20.20;;
22916;SDS011;11624;53.250;7.456;2023-02-23T13:59:58;65.28;;;17.35;;
22916;SDS011;11624;53.250;7.456;2023-02-23T14:02:32;43.80;;;11.13;;
22916;SDS011;11624;53.250;7.456;2023-02-23T14:05:03;26.77;;;5.65;;
22916;SDS011;11624;53.250;7.456;2023-02-23T14:07:44;32.65;;;4.90;;
22916;SDS011;11624;53.250;7.456;2023-02-23T14:10:19;28.38;;;5.03;;
22916;SDS011;11624;53.250;7.456;2023-02-23T14:13:03;32.13;;;5.68;;
22916;SDS011;11624;53.250;7.456;2023-02-23T14:15:42;41.08;;;7.03;;
22916;SDS011;11624;53.250;7.456;2023-02-23T14:18:27;43.15;;;7.05;;
22916;SDS011;11624;53.250;7.456;2023-02-23T14:21:00;42.55;;;7.40;;
22916;SDS011;11624;53.250;7.456;2023-02-23T14:23:47;47.75;;;7.18;;
22916;SDS011;11624;53.250;7.456;2023-02-23T14:29:09;41.58;;;7.28;;
22916;SDS011;11624;53.250;7.456;2023-02-23T14:31:57;38.83;;;7.68;;
22916;SDS011;11624;53.250;7.456;2023-02-23T14:34:45;44.78;;;6.93;;
22916;SDS011;11624;53.250;7.456;2023-02-23T14:37:17;45.55;;;6.72;;
22916;SDS011;11624;53.250;7.456;2023-02-23T14:39:52;29.17;;;5.63;;
22916;SDS011;11624;53.250;7.456;2023-02-23T14:42:23;40.83;;;6.47;;
22916;SDS011;11624;53.250;7.456;2023-02-23T14:44:53;41.13;;;6.30;;
22916;SDS011;11624;53.250;7.456;2023-02-23T14:47:24;42.90;;;6.65;;
22916;SDS011;11624;53.250;7.456;2023-02-23T14:49:53;30.55;;;6.13;;
22916;SDS011;11624;53.250;7.456;2023-02-23T14:52:25;40.28;;;6.28;;
22916;SDS011;11624;53.250;7.456;2023-02-23T14:55:05;42.85;;;6.72;;
22916;SDS011;11624;53.250;7.456;2023-02-23T14:57:42;44.03;;;6.70;;
22916;SDS011;11624;53.250;7.456;2023-02-23T15:00:14;38.40;;;5.97;;
22916;SDS011;11624;53.250;7.456;2023-02-23T15:02:52;42.78;;;6.88;;
22916;SDS011;11624;53.250;7.456;2023-02-23T15:05:22;40.28;;;5.75;;
22916;SDS011;11624;53.250;7.456;2023-02-23T15:07:52;38.55;;;5.47;;
22916;SDS011;11624;53.250;7.456;2023-02-23T15:10:27;41.88;;;6.18;;
22916;SDS011;11624;53.250;7.456;2023-02-23T15:12:58;46.67;;;6.50;;